Tina-c — 2APY2 — position and weather

sailwx.info

Track history (hours):
 
Tides and Currents Weather Stations Pressure Air Temp Water Temp Dewpoint Dewpoint Depression Visibility Wind Speed Wind Dir Waves Ship Positions

Tina-c

Last reported at 2017-Jan-24 20:26 UTC. Time now 2017-Jan-24 21:29 UTC.
Position N 28°09' W 015°24'.

Length 99 m; draft 6.1 m.

Type: Cargo ship. MMSI: 235061987.

Date/timePositionNaut miles runAvg speedWind from/ knotsBaromVisibWave heightAir tempDewpointWater temp
2017-Jan-24 20:26N 28°09' W 015°24'0 0.0
2017-Jan-24 19:26N 28°09' W 015°24'0 0.0
2017-Jan-24 18:29N 28°09' W 015°24'0 0.0
2017-Jan-24 17:26N 28°09' W 015°24'0 0.0
2017-Jan-24 16:29N 28°09' W 015°24'0 0.0
2017-Jan-24 15:32N 28°09' W 015°24'0 0.0
2017-Jan-24 14:32N 28°09' W 015°24'0 0.0
2017-Jan-24 13:32N 28°09' W 015°24'0 0.0
2017-Jan-24 12:32N 28°09' W 015°24'0 0.0
2017-Jan-24 11:32N 28°09' W 015°24'0 0.0
2017-Jan-24 10:33N 28°09' W 015°24'3 3.4
2017-Jan-24 09:33N 28°07' W 015°22'1 0.9
2017-Jan-24 08:33N 28°06' W 015°21'2 2.3
2017-Jan-24 07:33N 28°04' W 015°21'2 2.3
2017-Jan-24 06:33N 28°06' W 015°19'3 3.5
2017-Jan-24 05:33N 28°09' W 015°20'3 2.6
2017-Jan-24 04:33N 28°12' W 015°18'4 4.0
2017-Jan-24 03:33N 28°15' W 015°15'4 4.3
2017-Jan-24 02:33N 28°18' W 015°12'5 4.5
2017-Jan-24 01:33N 28°21' W 015°09'5 4.6
2017-Jan-24 00:33N 28°25' W 015°05'4 4.1
2017-Jan-23 23:33N 28°28' W 015°02'4 4.0
2017-Jan-23 22:30N 28°31' W 014°59'  
2017-Jan-20 05:33N 29°08' W 013°03'9 9.4
2017-Jan-20 04:33N 28°59' W 013°06'9 9.4
2017-Jan-20 03:33N 28°50' W 013°09'11 9.6
2017-Jan-20 02:21N 28°38' W 013°13'  
2017-Jan-17 16:21N 28°02' W 015°20'8 9.9
2017-Jan-17 15:34N 28°08' W 015°25'0 0.3
2017-Jan-17 14:27N 28°09' W 015°25'0 0.0
2017-Jan-17 13:27N 28°09' W 015°25'0 0.0
2017-Jan-17 12:30N 28°09' W 015°25'0 0.0
2017-Jan-17 11:30N 28°09' W 015°25'0 0.0
2017-Jan-17 10:33N 28°09' W 015°25'0 0.0
2017-Jan-17 09:33N 28°09' W 015°25'0 0.0
2017-Jan-17 08:30N 28°09' W 015°25'0 0.0
2017-Jan-17 07:33N 28°09' W 015°25'0 0.0
2017-Jan-17 06:33N 28°09' W 015°25'0 0.0
2017-Jan-17 05:33N 28°09' W 015°25'0 0.0
2017-Jan-17 04:24N 28°09' W 015°25'0 0.0
2017-Jan-17 03:24N 28°09' W 015°25'0 0.0
2017-Jan-17 02:27N 28°09' W 015°25'0 0.0
2017-Jan-17 01:27N 28°09' W 015°25'0 0.1
2017-Jan-17 00:24N 28°09' W 015°25'0 0.1
2017-Jan-16 23:30N 28°09' W 015°25'0 0.0
2017-Jan-16 22:30N 28°09' W 015°25'0 0.0
2017-Jan-16 21:30N 28°09' W 015°25'0 0.0
2017-Jan-16 20:30N 28°09' W 015°25'0 0.0
2017-Jan-16 19:33N 28°09' W 015°25'0 0.0
2017-Jan-16 18:30N 28°09' W 015°25'0 0.0
2017-Jan-16 17:33N 28°09' W 015°25'0 0.1
2017-Jan-16 16:30N 28°09' W 015°25'0 0.1
2017-Jan-16 15:33N 28°09' W 015°25'0 0.0
2017-Jan-16 14:24N 28°09' W 015°25'0 0.0
2017-Jan-16 13:09N 28°09' W 015°25'0 0.0
2017-Jan-16 12:24N 28°09' W 015°25'0 0.0
2017-Jan-16 11:27N 28°09' W 015°25'0 0.0
2017-Jan-16 10:27N 28°09' W 015°25'0 0.0
2017-Jan-16 09:27N 28°09' W 015°25'0 0.0
2017-Jan-16 08:30N 28°09' W 015°25'0 0.0
2017-Jan-16 07:30N 28°09' W 015°25'0 0.0
2017-Jan-16 06:30N 28°09' W 015°25'0 0.0
2017-Jan-16 05:33N 28°09' W 015°25'0 0.0
2017-Jan-16 04:33N 28°09' W 015°25'0 0.0
2017-Jan-16 03:33N 28°09' W 015°25'0 0.0
2017-Jan-16 02:33N 28°09' W 015°25'0 0.0
2017-Jan-16 01:33N 28°09' W 015°25'0 0.0
2017-Jan-16 00:33N 28°09' W 015°25'0 0.0
2017-Jan-15 23:21N 28°09' W 015°25'0 0.0
2017-Jan-15 22:24N 28°09' W 015°25'0 0.0
2017-Jan-15 21:27N 28°09' W 015°25'0 0.0
2017-Jan-15 20:27N 28°09' W 015°25'0 0.0
2017-Jan-15 19:27N 28°09' W 015°25'0 0.0
2017-Jan-15 18:30N 28°09' W 015°25'0 0.0
2017-Jan-15 17:30N 28°09' W 015°25'0 0.0
2017-Jan-15 16:30N 28°09' W 015°25'0 0.0
2017-Jan-15 15:33N 28°09' W 015°25'0 0.0
2017-Jan-15 14:30N 28°09' W 015°25'0 0.0
2017-Jan-15 13:30N 28°09' W 015°25'0 0.0
2017-Jan-15 12:21N 28°09' W 015°25'0 0.0
2017-Jan-15 11:21N 28°09' W 015°25'0 0.0
2017-Jan-15 10:33N 28°09' W 015°25'0 0.0
2017-Jan-15 09:33N 28°09' W 015°25'0 0.0
2017-Jan-15 08:24N 28°09' W 015°25'1 1.0
2017-Jan-15 07:33N 28°08' W 015°25'5 5.3
2017-Jan-15 06:33N 28°11' W 015°20'1010.4
2017-Jan-15 05:33N 28°20' W 015°14'9 8.6
2017-Jan-15 04:33N 28°28' W 015°10'6 6.4
2017-Jan-15 03:33N 28°31' W 015°16'7 6.9
2017-Jan-15 02:33N 28°33' W 015°23'7 6.6
2017-Jan-15 01:33N 28°34' W 015°31'7 6.8
2017-Jan-15 00:33N 28°35' W 015°39'6 6.3
2017-Jan-14 23:33N 28°31' W 015°44'7 7.1
2017-Jan-14 22:33N 28°26' W 015°50'7 7.0
2017-Jan-14 21:33N 28°21' W 015°55'  
Track history (hours):
 
Tides and Currents Weather Stations Pressure Air Temp Water Temp Dewpoint Dewpoint Depression Visibility Wind Speed Wind Dir Waves Ship Positions

Tina-c

Last reported at 2017-Jan-24 20:26 UTC. Time now 2017-Jan-24 21:29 UTC.
Position N 28°09' W 015°24'.

Length 99 m; draft 6.1 m.

Type: Cargo ship. MMSI: 235061987.

Date/timePositionNaut miles runAvg speedWind from/ knotsBaromVisibWave heightAir tempDewpointWater temp
2017-Jan-24 20:26N 28°09' W 015°24'0 0.0
2017-Jan-24 19:26N 28°09' W 015°24'0 0.0
2017-Jan-24 18:29N 28°09' W 015°24'0 0.0
2017-Jan-24 17:26N 28°09' W 015°24'0 0.0
2017-Jan-24 16:29N 28°09' W 015°24'0 0.0
2017-Jan-24 15:32N 28°09' W 015°24'0 0.0
2017-Jan-24 14:32N 28°09' W 015°24'0 0.0
2017-Jan-24 13:32N 28°09' W 015°24'0 0.0
2017-Jan-24 12:32N 28°09' W 015°24'0 0.0
2017-Jan-24 11:32N 28°09' W 015°24'0 0.0
2017-Jan-24 10:33N 28°09' W 015°24'3 3.4
2017-Jan-24 09:33N 28°07' W 015°22'1 0.9
2017-Jan-24 08:33N 28°06' W 015°21'2 2.3
2017-Jan-24 07:33N 28°04' W 015°21'2 2.3
2017-Jan-24 06:33N 28°06' W 015°19'3 3.5
2017-Jan-24 05:33N 28°09' W 015°20'3 2.6
2017-Jan-24 04:33N 28°12' W 015°18'4 4.0
2017-Jan-24 03:33N 28°15' W 015°15'4 4.3
2017-Jan-24 02:33N 28°18' W 015°12'5 4.5
2017-Jan-24 01:33N 28°21' W 015°09'5 4.6
2017-Jan-24 00:33N 28°25' W 015°05'4 4.1
2017-Jan-23 23:33N 28°28' W 015°02'4 4.0
2017-Jan-23 22:30N 28°31' W 014°59'  
2017-Jan-20 05:33N 29°08' W 013°03'9 9.4
2017-Jan-20 04:33N 28°59' W 013°06'9 9.4
2017-Jan-20 03:33N 28°50' W 013°09'11 9.6
2017-Jan-20 02:21N 28°38' W 013°13'  
2017-Jan-17 16:21N 28°02' W 015°20'8 9.9
2017-Jan-17 15:34N 28°08' W 015°25'0 0.3
2017-Jan-17 14:27N 28°09' W 015°25'0 0.0
2017-Jan-17 13:27N 28°09' W 015°25'0 0.0
2017-Jan-17 12:30N 28°09' W 015°25'0 0.0
2017-Jan-17 11:30N 28°09' W 015°25'0 0.0
2017-Jan-17 10:33N 28°09' W 015°25'0 0.0
2017-Jan-17 09:33N 28°09' W 015°25'0 0.0
2017-Jan-17 08:30N 28°09' W 015°25'0 0.0
2017-Jan-17 07:33N 28°09' W 015°25'0 0.0
2017-Jan-17 06:33N 28°09' W 015°25'0 0.0
2017-Jan-17 05:33N 28°09' W 015°25'0 0.0
2017-Jan-17 04:24N 28°09' W 015°25'0 0.0
2017-Jan-17 03:24N 28°09' W 015°25'0 0.0
2017-Jan-17 02:27N 28°09' W 015°25'0 0.0
2017-Jan-17 01:27N 28°09' W 015°25'0 0.1
2017-Jan-17 00:24N 28°09' W 015°25'0 0.1
2017-Jan-16 23:30N 28°09' W 015°25'0 0.0
2017-Jan-16 22:30N 28°09' W 015°25'0 0.0
2017-Jan-16 21:30N 28°09' W 015°25'0 0.0
2017-Jan-16 20:30N 28°09' W 015°25'0 0.0
2017-Jan-16 19:33N 28°09' W 015°25'0 0.0
2017-Jan-16 18:30N 28°09' W 015°25'0 0.0
2017-Jan-16 17:33N 28°09' W 015°25'0 0.1
2017-Jan-16 16:30N 28°09' W 015°25'0 0.1
2017-Jan-16 15:33N 28°09' W 015°25'0 0.0
2017-Jan-16 14:24N 28°09' W 015°25'0 0.0
2017-Jan-16 13:09N 28°09' W 015°25'0 0.0
2017-Jan-16 12:24N 28°09' W 015°25'0 0.0
2017-Jan-16 11:27N 28°09' W 015°25'0 0.0
2017-Jan-16 10:27N 28°09' W 015°25'0 0.0
2017-Jan-16 09:27N 28°09' W 015°25'0 0.0
2017-Jan-16 08:30N 28°09' W 015°25'0 0.0
2017-Jan-16 07:30N 28°09' W 015°25'0 0.0
2017-Jan-16 06:30N 28°09' W 015°25'0 0.0
2017-Jan-16 05:33N 28°09' W 015°25'0 0.0
2017-Jan-16 04:33N 28°09' W 015°25'0 0.0
2017-Jan-16 03:33N 28°09' W 015°25'0 0.0
2017-Jan-16 02:33N 28°09' W 015°25'0 0.0
2017-Jan-16 01:33N 28°09' W 015°25'0 0.0
2017-Jan-16 00:33N 28°09' W 015°25'0 0.0
2017-Jan-15 23:21N 28°09' W 015°25'0 0.0
2017-Jan-15 22:24N 28°09' W 015°25'0 0.0
2017-Jan-15 21:27N 28°09' W 015°25'0 0.0
2017-Jan-15 20:27N 28°09' W 015°25'0 0.0
2017-Jan-15 19:27N 28°09' W 015°25'0 0.0
2017-Jan-15 18:30N 28°09' W 015°25'0 0.0
2017-Jan-15 17:30N 28°09' W 015°25'0 0.0
2017-Jan-15 16:30N 28°09' W 015°25'0 0.0
2017-Jan-15 15:33N 28°09' W 015°25'0 0.0
2017-Jan-15 14:30N 28°09' W 015°25'0 0.0
2017-Jan-15 13:30N 28°09' W 015°25'0 0.0
2017-Jan-15 12:21N 28°09' W 015°25'0 0.0
2017-Jan-15 11:21N 28°09' W 015°25'0 0.0
2017-Jan-15 10:33N 28°09' W 015°25'0 0.0
2017-Jan-15 09:33N 28°09' W 015°25'0 0.0
2017-Jan-15 08:24N 28°09' W 015°25'1 1.0
2017-Jan-15 07:33N 28°08' W 015°25'5 5.3
2017-Jan-15 06:33N 28°11' W 015°20'1010.4
2017-Jan-15 05:33N 28°20' W 015°14'9 8.6
2017-Jan-15 04:33N 28°28' W 015°10'6 6.4
2017-Jan-15 03:33N 28°31' W 015°16'7 6.9
2017-Jan-15 02:33N 28°33' W 015°23'7 6.6
2017-Jan-15 01:33N 28°34' W 015°31'7 6.8
2017-Jan-15 00:33N 28°35' W 015°39'6 6.3
2017-Jan-14 23:33N 28°31' W 015°44'7 7.1
2017-Jan-14 22:33N 28°26' W 015°50'7 7.0
2017-Jan-14 21:33N 28°21' W 015°55'  

Dump ship's entire track history